sensor_id;sensor_type;location;lat;lon;timestamp;P1;durP1;ratioP1;P2;durP2;ratioP2
41059;SDS011;26811;53.160;8.202;2023-07-22T00:04:55;14.30;;;6.55;;
41059;SDS011;26811;53.160;8.202;2023-07-22T00:09:55;13.48;;;6.75;;
41059;SDS011;26811;53.160;8.202;2023-07-22T00:14:56;26.05;;;8.15;;
41059;SDS011;26811;53.160;8.202;2023-07-22T00:19:56;18.30;;;7.47;;
41059;SDS011;26811;53.160;8.202;2023-07-22T00:24:57;18.27;;;7.22;;
41059;SDS011;26811;53.160;8.202;2023-07-22T00:35:00;18.13;;;7.78;;
41059;SDS011;26811;53.160;8.202;2023-07-22T00:40:01;19.23;;;7.65;;
41059;SDS011;26811;53.160;8.202;2023-07-22T00:45:06;16.05;;;7.45;;
41059;SDS011;26811;53.160;8.202;2023-07-22T00:50:07;14.38;;;6.78;;
41059;SDS011;26811;53.160;8.202;2023-07-22T00:55:08;21.30;;;7.65;;
41059;SDS011;26811;53.160;8.202;2023-07-22T01:00:09;14.98;;;7.20;;
41059;SDS011;26811;53.160;8.202;2023-07-22T01:05:12;18.13;;;7.80;;
41059;SDS011;26811;53.160;8.202;2023-07-22T01:10:13;18.40;;;7.25;;
41059;SDS011;26811;53.160;8.202;2023-07-22T01:15:17;22.13;;;7.22;;
41059;SDS011;26811;53.160;8.202;2023-07-22T01:20:23;23.08;;;7.82;;
41059;SDS011;26811;53.160;8.202;2023-07-22T01:25:24;21.48;;;8.18;;
41059;SDS011;26811;53.160;8.202;2023-07-22T01:30:25;15.60;;;7.43;;
41059;SDS011;26811;53.160;8.202;2023-07-22T01:35:30;21.45;;;7.55;;
41059;SDS011;26811;53.160;8.202;2023-07-22T01:40:31;15.15;;;7.38;;
41059;SDS011;26811;53.160;8.202;2023-07-22T01:45:32;15.23;;;7.57;;
41059;SDS011;26811;53.160;8.202;2023-07-22T01:50:32;20.85;;;7.80;;
41059;SDS011;26811;53.160;8.202;2023-07-22T01:55:33;21.40;;;7.07;;
41059;SDS011;26811;53.160;8.202;2023-07-22T02:00:34;18.23;;;7.65;;
41059;SDS011;26811;53.160;8.202;2023-07-22T02:05:34;23.45;;;7.70;;
41059;SDS011;26811;53.160;8.202;2023-07-22T02:10:35;15.77;;;6.85;;
41059;SDS011;26811;53.160;8.202;2023-07-22T02:15:36;19.23;;;7.32;;
41059;SDS011;26811;53.160;8.202;2023-07-22T02:20:36;21.63;;;7.60;;
41059;SDS011;26811;53.160;8.202;2023-07-22T02:25:37;22.52;;;7.63;;
41059;SDS011;26811;53.160;8.202;2023-07-22T02:30:40;21.95;;;8.02;;
41059;SDS011;26811;53.160;8.202;2023-07-22T02:35:41;18.10;;;7.85;;
41059;SDS011;26811;53.160;8.202;2023-07-22T02:40:42;23.73;;;7.57;;
41059;SDS011;26811;53.160;8.202;2023-07-22T02:45:42;22.02;;;7.68;;
41059;SDS011;26811;53.160;8.202;2023-07-22T02:50:44;22.50;;;7.38;;
41059;SDS011;26811;53.160;8.202;2023-07-22T02:55:45;18.48;;;7.35;;
41059;SDS011;26811;53.160;8.202;2023-07-22T03:00:49;15.25;;;7.32;;
41059;SDS011;26811;53.160;8.202;2023-07-22T03:05:50;17.77;;;7.55;;
41059;SDS011;26811;53.160;8.202;2023-07-22T03:10:51;17.63;;;7.43;;
41059;SDS011;26811;53.160;8.202;2023-07-22T03:15:52;23.67;;;8.25;;
41059;SDS011;26811;53.160;8.202;2023-07-22T03:20:55;21.88;;;8.35;;
41059;SDS011;26811;53.160;8.202;2023-07-22T03:25:57;20.52;;;7.70;;
41059;SDS011;26811;53.160;8.202;2023-07-22T03:30:57;23.27;;;7.97;;
41059;SDS011;26811;53.160;8.202;2023-07-22T03:35:58;24.80;;;8.25;;
41059;SDS011;26811;53.160;8.202;2023-07-22T03:41:01;23.75;;;8.13;;
41059;SDS011;26811;53.160;8.202;2023-07-22T03:46:03;19.52;;;8.43;;
41059;SDS011;26811;53.160;8.202;2023-07-22T03:51:04;23.90;;;8.23;;
41059;SDS011;26811;53.160;8.202;2023-07-22T03:56:07;20.55;;;8.13;;
41059;SDS011;26811;53.160;8.202;2023-07-22T04:01:11;16.17;;;7.15;;
41059;SDS011;26811;53.160;8.202;2023-07-22T04:06:12;19.45;;;8.30;;
41059;SDS011;26811;53.160;8.202;2023-07-22T04:11:22;18.90;;;8.05;;
41059;SDS011;26811;53.160;8.202;2023-07-22T04:16:23;20.27;;;7.90;;
41059;SDS011;26811;53.160;8.202;2023-07-22T04:21:32;19.38;;;7.72;;
41059;SDS011;26811;53.160;8.202;2023-07-22T04:26:38;24.90;;;8.73;;
41059;SDS011;26811;53.160;8.202;2023-07-22T04:31:47;25.30;;;8.38;;
41059;SDS011;26811;53.160;8.202;2023-07-22T04:36:50;21.20;;;8.15;;
41059;SDS011;26811;53.160;8.202;2023-07-22T04:41:51;20.95;;;7.55;;
41059;SDS011;26811;53.160;8.202;2023-07-22T04:46:52;17.30;;;7.68;;
41059;SDS011;26811;53.160;8.202;2023-07-22T04:51:52;17.83;;;7.55;;
41059;SDS011;26811;53.160;8.202;2023-07-22T04:56:53;14.75;;;6.97;;
41059;SDS011;26811;53.160;8.202;2023-07-22T05:01:54;18.50;;;7.32;;
41059;SDS011;26811;53.160;8.202;2023-07-22T05:06:54;16.23;;;7.30;;
41059;SDS011;26811;53.160;8.202;2023-07-22T05:11:55;17.25;;;6.78;;
41059;SDS011;26811;53.160;8.202;2023-07-22T05:16:55;19.15;;;7.38;;
41059;SDS011;26811;53.160;8.202;2023-07-22T05:21:56;16.15;;;6.85;;
41059;SDS011;26811;53.160;8.202;2023-07-22T05:26:57;15.45;;;6.15;;
41059;SDS011;26811;53.160;8.202;2023-07-22T05:31:57;16.80;;;6.68;;
41059;SDS011;26811;53.160;8.202;2023-07-22T05:36:58;15.82;;;6.50;;
41059;SDS011;26811;53.160;8.202;2023-07-22T05:41:58;17.35;;;6.70;;
41059;SDS011;26811;53.160;8.202;2023-07-22T05:46:59;19.17;;;6.15;;
41059;SDS011;26811;53.160;8.202;2023-07-22T05:51:59;14.82;;;5.72;;
41059;SDS011;26811;53.160;8.202;2023-07-22T05:57:00;13.52;;;5.88;;
41059;SDS011;26811;53.160;8.202;2023-07-22T06:02:01;17.40;;;5.95;;
41059;SDS011;26811;53.160;8.202;2023-07-22T06:07:02;15.82;;;6.30;;
41059;SDS011;26811;53.160;8.202;2023-07-22T06:12:03;12.85;;;5.97;;
41059;SDS011;26811;53.160;8.202;2023-07-22T06:17:04;15.18;;;6.28;;
41059;SDS011;26811;53.160;8.202;2023-07-22T06:22:05;14.32;;;6.40;;
41059;SDS011;26811;53.160;8.202;2023-07-22T06:27:05;16.75;;;6.65;;
41059;SDS011;26811;53.160;8.202;2023-07-22T06:32:06;16.88;;;6.72;;
41059;SDS011;26811;53.160;8.202;2023-07-22T06:37:14;14.48;;;6.22;;
41059;SDS011;26811;53.160;8.202;2023-07-22T06:42:26;17.73;;;5.93;;
41059;SDS011;26811;53.160;8.202;2023-07-22T06:47:27;14.85;;;5.30;;
41059;SDS011;26811;53.160;8.202;2023-07-22T06:52:27;11.75;;;4.57;;
41059;SDS011;26811;53.160;8.202;2023-07-22T06:57:28;12.57;;;5.00;;
41059;SDS011;26811;53.160;8.202;2023-07-22T07:02:29;13.70;;;5.47;;
41059;SDS011;26811;53.160;8.202;2023-07-22T07:07:29;11.23;;;5.00;;
41059;SDS011;26811;53.160;8.202;2023-07-22T07:12:30;11.63;;;4.75;;
41059;SDS011;26811;53.160;8.202;2023-07-22T07:17:30;8.30;;;4.00;;
41059;SDS011;26811;53.160;8.202;2023-07-22T07:22:31;9.82;;;4.10;;
41059;SDS011;26811;53.160;8.202;2023-07-22T07:27:31;7.00;;;3.53;;
41059;SDS011;26811;53.160;8.202;2023-07-22T07:32:32;9.38;;;3.53;;
41059;SDS011;26811;53.160;8.202;2023-07-22T07:37:32;9.02;;;3.80;;
41059;SDS011;26811;53.160;8.202;2023-07-22T07:42:33;8.10;;;4.15;;
41059;SDS011;26811;53.160;8.202;2023-07-22T07:47:34;7.75;;;3.40;;
41059;SDS011;26811;53.160;8.202;2023-07-22T07:52:34;7.50;;;3.55;;
41059;SDS011;26811;53.160;8.202;2023-07-22T07:57:35;7.07;;;3.38;;
41059;SDS011;26811;53.160;8.202;2023-07-22T08:02:35;9.38;;;4.10;;
41059;SDS011;26811;53.160;8.202;2023-07-22T08:07:36;8.73;;;3.92;;
41059;SDS011;26811;53.160;8.202;2023-07-22T08:12:36;12.23;;;4.60;;
41059;SDS011;26811;53.160;8.202;2023-07-22T08:17:37;10.45;;;5.00;;
41059;SDS011;26811;53.160;8.202;2023-07-22T08:22:38;12.00;;;5.25;;
41059;SDS011;26811;53.160;8.202;2023-07-22T08:27:38;13.82;;;5.85;;
41059;SDS011;26811;53.160;8.202;2023-07-22T08:32:39;11.63;;;6.25;;
41059;SDS011;26811;53.160;8.202;2023-07-22T08:37:39;17.08;;;6.75;;
41059;SDS011;26811;53.160;8.202;2023-07-22T08:47:47;17.70;;;7.75;;
41059;SDS011;26811;53.160;8.202;2023-07-22T08:52:54;18.55;;;8.20;;
41059;SDS011;26811;53.160;8.202;2023-07-22T08:57:55;15.35;;;7.90;;
41059;SDS011;26811;53.160;8.202;2023-07-22T09:02:57;18.53;;;8.50;;
41059;SDS011;26811;53.160;8.202;2023-07-22T09:07:59;16.80;;;9.25;;
41059;SDS011;26811;53.160;8.202;2023-07-22T09:13:02;19.63;;;8.95;;
41059;SDS011;26811;53.160;8.202;2023-07-22T09:18:03;16.65;;;8.77;;
41059;SDS011;26811;53.160;8.202;2023-07-22T09:23:05;21.00;;;10.30;;
41059;SDS011;26811;53.160;8.202;2023-07-22T09:28:06;17.65;;;9.07;;
41059;SDS011;26811;53.160;8.202;2023-07-22T09:33:07;18.73;;;8.63;;
41059;SDS011;26811;53.160;8.202;2023-07-22T09:38:24;15.13;;;8.63;;
41059;SDS011;26811;53.160;8.202;2023-07-22T09:43:25;14.82;;;7.82;;
41059;SDS011;26811;53.160;8.202;2023-07-22T09:48:26;13.60;;;6.93;;
41059;SDS011;26811;53.160;8.202;2023-07-22T09:53:26;14.98;;;7.32;;
41059;SDS011;26811;53.160;8.202;2023-07-22T09:58:27;12.80;;;6.90;;
41059;SDS011;26811;53.160;8.202;2023-07-22T10:03:30;14.13;;;6.78;;
41059;SDS011;26811;53.160;8.202;2023-07-22T10:08:33;11.82;;;6.25;;
41059;SDS011;26811;53.160;8.202;2023-07-22T10:13:35;17.08;;;6.00;;
41059;SDS011;26811;53.160;8.202;2023-07-22T10:18:37;8.38;;;5.55;;
41059;SDS011;26811;53.160;8.202;2023-07-22T10:23:41;12.20;;;6.57;;
41059;SDS011;26811;53.160;8.202;2023-07-22T10:28:46;13.45;;;6.43;;
41059;SDS011;26811;53.160;8.202;2023-07-22T10:33:47;10.80;;;6.50;;
41059;SDS011;26811;53.160;8.202;2023-07-22T10:38:57;17.13;;;7.90;;
41059;SDS011;26811;53.160;8.202;2023-07-22T10:43:59;12.98;;;7.05;;
41059;SDS011;26811;53.160;8.202;2023-07-22T10:49:13;12.70;;;6.55;;
41059;SDS011;26811;53.160;8.202;2023-07-22T10:54:30;14.45;;;6.47;;
41059;SDS011;26811;53.160;8.202;2023-07-22T10:59:33;13.38;;;7.10;;
41059;SDS011;26811;53.160;8.202;2023-07-22T11:04:35;10.55;;;6.53;;
41059;SDS011;26811;53.160;8.202;2023-07-22T11:09:37;13.60;;;6.57;;
41059;SDS011;26811;53.160;8.202;2023-07-22T11:14:48;11.48;;;6.45;;
41059;SDS011;26811;53.160;8.202;2023-07-22T11:19:50;13.70;;;6.88;;
41059;SDS011;26811;53.160;8.202;2023-07-22T11:24:52;12.10;;;6.30;;
41059;SDS011;26811;53.160;8.202;2023-07-22T11:29:53;11.10;;;6.35;;
41059;SDS011;26811;53.160;8.202;2023-07-22T11:34:53;12.63;;;6.78;;
41059;SDS011;26811;53.160;8.202;2023-07-22T11:39:58;11.15;;;7.05;;
41059;SDS011;26811;53.160;8.202;2023-07-22T11:45:00;13.82;;;8.10;;
41059;SDS011;26811;53.160;8.202;2023-07-22T11:50:01;20.50;;;8.55;;
41059;SDS011;26811;53.160;8.202;2023-07-22T11:55:02;16.85;;;9.00;;
41059;SDS011;26811;53.160;8.202;2023-07-22T12:00:03;18.10;;;9.02;;
41059;SDS011;26811;53.160;8.202;2023-07-22T12:05:08;20.92;;;9.75;;
41059;SDS011;26811;53.160;8.202;2023-07-22T12:10:09;21.10;;;10.35;;
41059;SDS011;26811;53.160;8.202;2023-07-22T12:15:13;20.60;;;10.55;;
41059;SDS011;26811;53.160;8.202;2023-07-22T12:20:15;24.15;;;11.55;;
41059;SDS011;26811;53.160;8.202;2023-07-22T12:25:17;21.55;;;11.88;;
41059;SDS011;26811;53.160;8.202;2023-07-22T12:30:18;21.25;;;11.45;;
41059;SDS011;26811;53.160;8.202;2023-07-22T12:35:19;21.17;;;10.75;;
41059;SDS011;26811;53.160;8.202;2023-07-22T12:40:20;15.93;;;9.48;;
41059;SDS011;26811;53.160;8.202;2023-07-22T12:45:20;14.85;;;9.15;;
41059;SDS011;26811;53.160;8.202;2023-07-22T12:50:22;18.17;;;8.68;;
41059;SDS011;26811;53.160;8.202;2023-07-22T12:55:22;14.02;;;7.82;;
41059;SDS011;26811;53.160;8.202;2023-07-22T13:00:23;13.32;;;8.05;;
41059;SDS011;26811;53.160;8.202;2023-07-22T13:05:23;13.32;;;8.05;;
41059;SDS011;26811;53.160;8.202;2023-07-22T13:10:25;12.35;;;7.88;;
41059;SDS011;26811;53.160;8.202;2023-07-22T13:15:25;15.32;;;8.20;;
41059;SDS011;26811;53.160;8.202;2023-07-22T13:20:26;11.95;;;7.30;;
41059;SDS011;26811;53.160;8.202;2023-07-22T13:25:26;15.13;;;6.93;;
41059;SDS011;26811;53.160;8.202;2023-07-22T13:30:27;12.63;;;7.72;;
41059;SDS011;26811;53.160;8.202;2023-07-22T13:35:28;11.10;;;6.13;;
41059;SDS011;26811;53.160;8.202;2023-07-22T13:40:28;11.00;;;6.63;;
41059;SDS011;26811;53.160;8.202;2023-07-22T13:45:29;9.25;;;6.75;;
41059;SDS011;26811;53.160;8.202;2023-07-22T13:50:29;12.10;;;7.80;;
41059;SDS011;26811;53.160;8.202;2023-07-22T13:55:30;12.70;;;8.57;;
41059;SDS011;26811;53.160;8.202;2023-07-22T14:00:31;16.13;;;8.82;;
41059;SDS011;26811;53.160;8.202;2023-07-22T14:05:31;14.55;;;8.93;;
41059;SDS011;26811;53.160;8.202;2023-07-22T14:10:32;17.30;;;10.30;;
41059;SDS011;26811;53.160;8.202;2023-07-22T14:15:33;18.90;;;10.43;;
41059;SDS011;26811;53.160;8.202;2023-07-22T14:20:33;17.02;;;10.82;;
41059;SDS011;26811;53.160;8.202;2023-07-22T14:25:34;19.05;;;11.75;;
41059;SDS011;26811;53.160;8.202;2023-07-22T14:30:34;20.67;;;12.45;;
41059;SDS011;26811;53.160;8.202;2023-07-22T14:35:35;21.00;;;11.15;;
41059;SDS011;26811;53.160;8.202;2023-07-22T14:40:36;18.08;;;11.38;;
41059;SDS011;26811;53.160;8.202;2023-07-22T14:45:37;18.13;;;11.40;;
41059;SDS011;26811;53.160;8.202;2023-07-22T14:50:37;20.17;;;11.68;;
41059;SDS011;26811;53.160;8.202;2023-07-22T14:55:38;21.02;;;11.75;;
41059;SDS011;26811;53.160;8.202;2023-07-22T15:00:39;18.30;;;11.05;;
41059;SDS011;26811;53.160;8.202;2023-07-22T15:05:39;17.33;;;10.80;;
41059;SDS011;26811;53.160;8.202;2023-07-22T15:10:40;19.63;;;10.32;;
41059;SDS011;26811;53.160;8.202;2023-07-22T15:15:41;18.08;;;9.90;;
41059;SDS011;26811;53.160;8.202;2023-07-22T15:20:42;15.52;;;8.32;;
41059;SDS011;26811;53.160;8.202;2023-07-22T15:25:43;12.05;;;8.30;;
41059;SDS011;26811;53.160;8.202;2023-07-22T15:30:43;13.80;;;7.93;;
41059;SDS011;26811;53.160;8.202;2023-07-22T15:35:44;16.23;;;8.05;;
41059;SDS011;26811;53.160;8.202;2023-07-22T15:40:45;13.13;;;7.60;;
41059;SDS011;26811;53.160;8.202;2023-07-22T15:45:45;11.93;;;7.65;;
41059;SDS011;26811;53.160;8.202;2023-07-22T15:50:46;19.98;;;9.63;;
41059;SDS011;26811;53.160;8.202;2023-07-22T15:55:48;12.68;;;7.30;;
41059;SDS011;26811;53.160;8.202;2023-07-22T16:00:49;14.98;;;7.78;;
41059;SDS011;26811;53.160;8.202;2023-07-22T16:05:51;15.27;;;8.90;;
41059;SDS011;26811;53.160;8.202;2023-07-22T16:10:51;12.02;;;8.68;;
41059;SDS011;26811;53.160;8.202;2023-07-22T16:15:52;13.93;;;9.02;;
41059;SDS011;26811;53.160;8.202;2023-07-22T16:20:53;15.30;;;9.10;;
41059;SDS011;26811;53.160;8.202;2023-07-22T16:25:54;17.58;;;9.70;;
41059;SDS011;26811;53.160;8.202;2023-07-22T16:30:55;18.92;;;10.85;;
41059;SDS011;26811;53.160;8.202;2023-07-22T16:35:55;16.98;;;10.77;;
41059;SDS011;26811;53.160;8.202;2023-07-22T16:40:56;18.45;;;11.30;;
41059;SDS011;26811;53.160;8.202;2023-07-22T16:45:57;20.48;;;13.15;;
41059;SDS011;26811;53.160;8.202;2023-07-22T16:50:58;21.05;;;12.48;;
41059;SDS011;26811;53.160;8.202;2023-07-22T16:55:58;23.75;;;13.75;;
41059;SDS011;26811;53.160;8.202;2023-07-22T17:00:59;24.45;;;13.68;;
41059;SDS011;26811;53.160;8.202;2023-07-22T17:06:00;25.58;;;13.98;;
41059;SDS011;26811;53.160;8.202;2023-07-22T17:11:01;23.40;;;14.40;;
41059;SDS011;26811;53.160;8.202;2023-07-22T17:16:02;24.67;;;14.70;;
41059;SDS011;26811;53.160;8.202;2023-07-22T17:21:02;25.60;;;14.65;;
41059;SDS011;26811;53.160;8.202;2023-07-22T17:26:04;20.42;;;13.88;;
41059;SDS011;26811;53.160;8.202;2023-07-22T17:31:04;25.45;;;13.88;;
41059;SDS011;26811;53.160;8.202;2023-07-22T17:36:05;25.02;;;14.02;;
41059;SDS011;26811;53.160;8.202;2023-07-22T17:41:05;19.48;;;13.02;;
41059;SDS011;26811;53.160;8.202;2023-07-22T17:46:06;23.83;;;14.10;;
41059;SDS011;26811;53.160;8.202;2023-07-22T17:51:06;25.35;;;13.60;;
41059;SDS011;26811;53.160;8.202;2023-07-22T17:56:07;22.35;;;13.70;;
41059;SDS011;26811;53.160;8.202;2023-07-22T18:01:08;22.77;;;14.77;;
41059;SDS011;26811;53.160;8.202;2023-07-22T18:06:08;24.80;;;14.25;;
41059;SDS011;26811;53.160;8.202;2023-07-22T18:11:09;23.67;;;14.52;;
41059;SDS011;26811;53.160;8.202;2023-07-22T18:16:09;24.45;;;14.60;;
41059;SDS011;26811;53.160;8.202;2023-07-22T18:21:10;24.90;;;14.43;;
41059;SDS011;26811;53.160;8.202;2023-07-22T18:26:10;23.38;;;14.43;;
41059;SDS011;26811;53.160;8.202;2023-07-22T18:31:11;28.20;;;14.07;;
41059;SDS011;26811;53.160;8.202;2023-07-22T18:36:12;25.45;;;14.40;;
41059;SDS011;26811;53.160;8.202;2023-07-22T18:41:13;23.27;;;13.95;;
41059;SDS011;26811;53.160;8.202;2023-07-22T18:46:18;25.70;;;14.18;;
41059;SDS011;26811;53.160;8.202;2023-07-22T18:51:20;25.98;;;15.18;;
41059;SDS011;26811;53.160;8.202;2023-07-22T18:56:20;25.38;;;14.55;;
41059;SDS011;26811;53.160;8.202;2023-07-22T19:01:21;26.48;;;14.57;;
41059;SDS011;26811;53.160;8.202;2023-07-22T19:06:21;24.95;;;14.90;;
41059;SDS011;26811;53.160;8.202;2023-07-22T19:11:22;24.70;;;15.90;;
41059;SDS011;26811;53.160;8.202;2023-07-22T19:16:24;26.58;;;15.02;;
41059;SDS011;26811;53.160;8.202;2023-07-22T19:21:26;27.50;;;16.05;;
41059;SDS011;26811;53.160;8.202;2023-07-22T19:26:26;28.58;;;17.02;;
41059;SDS011;26811;53.160;8.202;2023-07-22T19:31:27;26.27;;;16.02;;
41059;SDS011;26811;53.160;8.202;2023-07-22T19:36:27;63.90;;;31.88;;
41059;SDS011;26811;53.160;8.202;2023-07-22T19:41:28;27.95;;;17.60;;
41059;SDS011;26811;53.160;8.202;2023-07-22T19:46:28;30.73;;;17.13;;
41059;SDS011;26811;53.160;8.202;2023-07-22T19:51:29;30.50;;;18.63;;
41059;SDS011;26811;53.160;8.202;2023-07-22T19:56:30;28.00;;;18.95;;
41059;SDS011;26811;53.160;8.202;2023-07-22T20:01:30;29.33;;;17.58;;
41059;SDS011;26811;53.160;8.202;2023-07-22T20:06:31;32.30;;;17.58;;
41059;SDS011;26811;53.160;8.202;2023-07-22T20:11:32;28.15;;;18.35;;
41059;SDS011;26811;53.160;8.202;2023-07-22T20:16:32;33.22;;;20.25;;
41059;SDS011;26811;53.160;8.202;2023-07-22T20:21:33;31.13;;;19.80;;
41059;SDS011;26811;53.160;8.202;2023-07-22T20:26:34;37.60;;;20.73;;
41059;SDS011;26811;53.160;8.202;2023-07-22T20:31:34;36.50;;;20.88;;
41059;SDS011;26811;53.160;8.202;2023-07-22T20:36:35;38.38;;;22.17;;
41059;SDS011;26811;53.160;8.202;2023-07-22T20:41:35;35.70;;;20.35;;
41059;SDS011;26811;53.160;8.202;2023-07-22T20:46:36;36.13;;;21.77;;
41059;SDS011;26811;53.160;8.202;2023-07-22T20:51:36;43.13;;;22.83;;
41059;SDS011;26811;53.160;8.202;2023-07-22T20:56:37;35.92;;;22.10;;
41059;SDS011;26811;53.160;8.202;2023-07-22T21:01:38;36.17;;;21.33;;
41059;SDS011;26811;53.160;8.202;2023-07-22T21:06:38;36.70;;;22.02;;
41059;SDS011;26811;53.160;8.202;2023-07-22T21:11:39;41.95;;;22.33;;
41059;SDS011;26811;53.160;8.202;2023-07-22T21:16:39;41.53;;;22.73;;
41059;SDS011;26811;53.160;8.202;2023-07-22T21:21:40;40.30;;;23.40;;
41059;SDS011;26811;53.160;8.202;2023-07-22T21:26:40;43.08;;;24.50;;
41059;SDS011;26811;53.160;8.202;2023-07-22T21:31:41;45.45;;;23.40;;
41059;SDS011;26811;53.160;8.202;2023-07-22T21:36:41;42.03;;;23.73;;
41059;SDS011;26811;53.160;8.202;2023-07-22T21:41:43;41.38;;;23.88;;
41059;SDS011;26811;53.160;8.202;2023-07-22T21:46:46;40.95;;;24.52;;
41059;SDS011;26811;53.160;8.202;2023-07-22T21:51:48;43.03;;;23.85;;
41059;SDS011;26811;53.160;8.202;2023-07-22T21:56:48;43.50;;;22.67;;
41059;SDS011;26811;53.160;8.202;2023-07-22T22:01:49;46.30;;;25.08;;
41059;SDS011;26811;53.160;8.202;2023-07-22T22:06:49;47.00;;;24.75;;
41059;SDS011;26811;53.160;8.202;2023-07-22T22:11:51;49.23;;;25.63;;
41059;SDS011;26811;53.160;8.202;2023-07-22T22:16:52;43.58;;;25.50;;
41059;SDS011;26811;53.160;8.202;2023-07-22T22:21:54;48.53;;;25.45;;
41059;SDS011;26811;53.160;8.202;2023-07-22T22:26:54;50.72;;;26.42;;
41059;SDS011;26811;53.160;8.202;2023-07-22T22:31:55;54.25;;;27.10;;
41059;SDS011;26811;53.160;8.202;2023-07-22T22:36:56;54.20;;;27.33;;
41059;SDS011;26811;53.160;8.202;2023-07-22T22:41:56;53.88;;;28.20;;
41059;SDS011;26811;53.160;8.202;2023-07-22T22:46:57;54.25;;;28.25;;
41059;SDS011;26811;53.160;8.202;2023-07-22T22:51:57;57.63;;;29.80;;
41059;SDS011;26811;53.160;8.202;2023-07-22T22:56:58;58.47;;;29.02;;
41059;SDS011;26811;53.160;8.202;2023-07-22T23:01:58;58.55;;;28.33;;
41059;SDS011;26811;53.160;8.202;2023-07-22T23:06:59;63.47;;;28.52;;
41059;SDS011;26811;53.160;8.202;2023-07-22T23:11:59;58.60;;;28.17;;
41059;SDS011;26811;53.160;8.202;2023-07-22T23:17:00;59.90;;;29.27;;
41059;SDS011;26811;53.160;8.202;2023-07-22T23:22:00;59.58;;;28.95;;
41059;SDS011;26811;53.160;8.202;2023-07-22T23:27:01;56.08;;;27.75;;
41059;SDS011;26811;53.160;8.202;2023-07-22T23:32:02;55.72;;;26.67;;
41059;SDS011;26811;53.160;8.202;2023-07-22T23:37:03;54.95;;;26.95;;
41059;SDS011;26811;53.160;8.202;2023-07-22T23:42:03;57.60;;;26.25;;
41059;SDS011;26811;53.160;8.202;2023-07-22T23:47:04;52.60;;;25.83;;
41059;SDS011;26811;53.160;8.202;2023-07-22T23:52:05;60.67;;;27.40;;
41059;SDS011;26811;53.160;8.202;2023-07-22T23:57:06;72.45;;;28.60;;
